Time;durP1;ratioP1;P1;durP2;ratioP2;P2;SDS_P1;SDS_P2;PMS_P1;PMS_P2;Temp;Humidity;BMP_temperature;BMP_pressure;BME280_temperature;BME280_humidity;BME280_pressure;Samples;Min_cycle;Max_cycle;Signal;HPM_P1;HPM_P2
2023/10/19 00:01:12;;;;;;;27.08;15.20;;;;;;;;;;2055720;28;20351;-78
2023/10/19 00:02:34;;;;;;;24.40;14.65;;;;;;;;;;2061474;28;20034;-78
2023/10/19 00:03:57;;;;;;;25.67;13.85;;;;;;;;;;2066503;28;20041;-77
2023/10/19 00:05:19;;;;;;;23.65;13.55;;;;;;;;;;2061863;28;20509;-77
2023/10/19 00:06:40;;;;;;;;;;;;;;;;;;2065952;28;20074;-78
2023/10/19 00:08:06;;;;;;;23.17;13.38;;;;;;;;;;2064274;28;19917;-77
2023/10/19 00:09:37;;;;;;;23.40;13.57;;;;;;;;;;2076791;28;20032;-75
2023/10/19 00:11:10;;;;;;;22.90;14.18;;;;;;;;;;2074739;28;20524;-75
2023/10/19 00:12:32;;;;;;;21.85;13.65;;;;;;;;;;2067922;28;20049;-75
2023/10/19 00:13:57;;;;;;;24.77;15.38;;;;;;;;;;2073427;28;20049;-75
2023/10/19 00:15:23;;;;;;;25.30;14.18;;;;;;;;;;2075697;28;20022;-75
2023/10/19 00:16:50;;;;;;;23.23;13.45;;;;;;;;;;2066930;28;20030;-75
2023/10/19 00:18:32;;;;;;;24.33;14.15;;;;;;;;;;2064848;28;20050;-75
2023/10/19 00:20:27;;;;;;;24.20;13.90;;;;;;;;;;2059633;28;20027;-75
2023/10/19 00:21:50;;;;;;;22.75;15.05;;;;;;;;;;2064868;28;20035;-75
2023/10/19 00:23:14;;;;;;;26.73;14.73;;;;;;;;;;2064466;28;20042;-75
2023/10/19 00:24:35;;;;;;;23.23;14.52;;;;;;;;;;2073974;28;20125;-75
2023/10/19 00:25:57;;;;;;;20.98;13.48;;;;;;;;;;2073581;28;20018;-75
2023/10/19 00:27:20;;;;;;;24.00;14.10;;;;;;;;;;2067488;28;20030;-76
2023/10/19 00:28:45;;;;;;;22.90;13.98;;;;;;;;;;2075020;28;20038;-76
2023/10/19 00:30:06;;;;;;;21.23;13.48;;;;;;;;;;2061945;28;20030;-76
2023/10/19 00:31:27;;;;;;;24.05;14.77;;;;;;;;;;2065168;28;20057;-74
2023/10/19 00:32:48;;;;;;;24.23;15.10;;;;;;;;;;2065381;28;20030;-75
2023/10/19 00:34:13;;;;;;;24.17;14.82;;;;;;;;;;2067912;28;20026;-75
2023/10/19 00:35:34;;;;;;;21.85;13.45;;;;;;;;;;2067049;28;20034;-75
2023/10/19 00:36:56;;;;;;;24.07;14.33;;;;;;;;;;2062598;28;20035;-75
2023/10/19 00:40:15;;;;;;;24.60;16.00;;;;;;;;;;2054454;28;20034;-74
2023/10/19 00:41:37;;;;;;;25.10;14.13;;;;;;;;;;2066188;28;20383;-74
2023/10/19 00:42:58;;;;;;;25.42;14.27;;;;;;;;;;2062290;28;20077;-74
2023/10/19 00:44:25;;;;;;;22.90;14.43;;;;;;;;;;2079568;28;20037;-75
2023/10/19 00:45:47;;;;;;;25.92;15.85;;;;;;;;;;2068462;28;20507;-76
2023/10/19 00:47:13;;;;;;;25.15;15.43;;;;;;;;;;2065551;28;20042;-74
2023/10/19 00:48:34;;;;;;;23.30;14.20;;;;;;;;;;2063382;28;20030;-74
2023/10/19 00:49:55;;;;;;;23.23;14.70;;;;;;;;;;2063225;28;20434;-75
2023/10/19 00:52:02;;;;;;;25.98;14.68;;;;;;;;;;2065972;28;20093;-75
2023/10/19 00:53:07;;;;;;;24.65;15.57;;;;;;;;;;2063017;28;20066;-74
2023/10/19 00:54:40;;;;;;;24.35;14.30;;;;;;;;;;2067772;28;20050;-75
2023/10/19 00:56:05;;;;;;;23.42;14.13;;;;;;;;;;2065734;28;20388;-74
2023/10/19 00:57:35;;;;;;;21.25;13.05;;;;;;;;;;2065086;28;20029;-74
2023/10/19 00:59:14;;;;;;;25.05;15.70;;;;;;;;;;2072720;28;20054;-74
2023/10/19 01:00:43;;;;;;;26.80;13.65;;;;;;;;;;2066169;28;20027;-75
2023/10/19 01:03:44;;;;;;;25.15;14.18;;;;;;;;;;2066053;28;20495;-75
2023/10/19 01:05:05;;;;;;;;;;;;;;;;;;2062598;28;20039;-74
2023/10/19 01:06:31;;;;;;;24.88;14.35;;;;;;;;;;2058571;28;19906;-75
2023/10/19 01:07:57;;;;;;;20.80;13.27;;;;;;;;;;2066433;28;20030;-75
2023/10/19 01:09:20;;;;;;;20.38;13.65;;;;;;;;;;2067270;28;20045;-76
2023/10/19 01:10:42;;;;;;;28.15;15.20;;;;;;;;;;2065452;28;20046;-76
2023/10/19 01:12:25;;;;;;;25.50;14.55;;;;;;;;;;2059198;28;20035;-77
2023/10/19 01:13:50;;;;;;;24.08;14.38;;;;;;;;;;2072371;28;20033;-78
2023/10/19 01:15:23;;;;;;;24.50;13.77;;;;;;;;;;2058300;28;20034;-77
2023/10/19 01:16:46;;;;;;;26.45;15.63;;;;;;;;;;2057233;28;20034;-76
2023/10/19 01:18:10;;;;;;;;;;;;;;;;;;2065696;28;20026;-77
2023/10/19 01:19:31;;;;;;;20.00;13.57;;;;;;;;;;2072702;28;19973;-78
2023/10/19 01:20:54;;;;;;;22.80;13.75;;;;;;;;;;2072424;28;20038;-77
2023/10/19 01:22:16;;;;;;;25.55;13.90;;;;;;;;;;2069330;28;20054;-77
2023/10/19 01:23:39;;;;;;;22.88;13.15;;;;;;;;;;2066294;28;20401;-77
2023/10/19 01:25:02;;;;;;;25.98;15.13;;;;;;;;;;2081558;28;20025;-77
2023/10/19 01:26:26;;;;;;;23.83;12.93;;;;;;;;;;2067280;28;20034;-77
2023/10/19 01:27:47;;;;;;;26.15;15.68;;;;;;;;;;2061450;28;20027;-78
2023/10/19 01:29:16;;;;;;;24.40;12.73;;;;;;;;;;2066807;28;20061;-77
2023/10/19 01:30:38;;;;;;;22.40;13.15;;;;;;;;;;2073029;28;20037;-78
2023/10/19 01:32:08;;;;;;;25.83;14.35;;;;;;;;;;2058536;28;20043;-77
2023/10/19 01:33:30;;;;;;;25.25;14.02;;;;;;;;;;2061543;28;20033;-77
2023/10/19 01:34:51;;;;;;;29.77;13.65;;;;;;;;;;2070096;28;20049;-76
2023/10/19 01:37:42;;;;;;;25.10;13.90;;;;;;;;;;2066636;28;20635;-77
2023/10/19 01:39:10;;;;;;;23.85;12.07;;;;;;;;;;2068531;28;20042;-77
2023/10/19 01:40:31;;;;;;;23.90;12.60;;;;;;;;;;2058676;28;20423;-77
2023/10/19 01:41:52;;;;;;;23.23;12.93;;;;;;;;;;2056240;28;20132;-77
2023/10/19 01:43:22;;;;;;;25.65;12.02;;;;;;;;;;2065317;28;20394;-77
2023/10/19 01:44:42;;;;;;;21.95;13.25;;;;;;;;;;2076392;28;20481;-77
2023/10/19 01:46:12;;;;;;;21.58;12.50;;;;;;;;;;2065199;28;20168;-77
2023/10/19 01:47:35;;;;;;;20.20;13.63;;;;;;;;;;2070852;28;20041;-77
2023/10/19 01:48:55;;;;;;;23.55;12.43;;;;;;;;;;2070113;28;20034;-78
2023/10/19 01:50:19;;;;;;;21.13;13.05;;;;;;;;;;2072267;28;20022;-77
2023/10/19 01:51:43;;;;;;;26.73;13.82;;;;;;;;;;2064762;28;20054;-77
2023/10/19 01:53:12;;;;;;;20.90;13.20;;;;;;;;;;2066060;28;20386;-77
2023/10/19 01:54:37;;;;;;;20.55;12.55;;;;;;;;;;2071085;28;20038;-77
2023/10/19 01:55:58;;;;;;;24.20;14.20;;;;;;;;;;2065874;28;20034;-77
2023/10/19 01:57:19;;;;;;;19.58;12.05;;;;;;;;;;2072449;28;20046;-77
2023/10/19 01:58:41;;;;;;;24.27;14.45;;;;;;;;;;2067373;28;20045;-77
2023/10/19 02:00:10;;;;;;;23.20;13.07;;;;;;;;;;2072204;28;20033;-77
2023/10/19 02:01:32;;;;;;;20.13;11.68;;;;;;;;;;2067841;28;20049;-78
2023/10/19 02:02:53;;;;;;;20.17;12.30;;;;;;;;;;2063100;28;20041;-77
2023/10/19 02:04:14;;;;;;;21.25;13.13;;;;;;;;;;2065468;28;20548;-77
2023/10/19 02:05:44;;;;;;;23.73;12.20;;;;;;;;;;2063338;28;20065;-78
2023/10/19 02:07:11;;;;;;;23.10;13.63;;;;;;;;;;2068783;28;20030;-77
2023/10/19 02:08:32;;;;;;;21.45;12.80;;;;;;;;;;2061353;28;20520;-77
2023/10/19 02:09:53;;;;;;;25.33;13.30;;;;;;;;;;2065589;28;20034;-77
2023/10/19 02:11:17;;;;;;;22.15;13.27;;;;;;;;;;2062728;28;20026;-77
2023/10/19 02:12:41;;;;;;;21.02;12.77;;;;;;;;;;2056353;28;20022;-78
2023/10/19 02:14:04;;;;;;;24.23;13.23;;;;;;;;;;2054198;28;20038;-78
2023/10/19 02:15:25;;;;;;;21.70;12.20;;;;;;;;;;2056375;28;20027;-78
2023/10/19 02:16:56;;;;;;;22.40;12.85;;;;;;;;;;2057281;28;20034;-78
2023/10/19 02:18:17;;;;;;;18.55;12.05;;;;;;;;;;2051649;28;20105;-77
2023/10/19 02:19:38;;;;;;;20.65;13.35;;;;;;;;;;2058574;28;20034;-78
2023/10/19 02:21:01;;;;;;;19.08;10.93;;;;;;;;;;2057772;28;20073;-78
2023/10/19 02:22:22;;;;;;;20.90;12.00;;;;;;;;;;2067223;28;20050;-78
2023/10/19 02:23:42;;;;;;;21.45;12.07;;;;;;;;;;2066080;28;20047;-77
2023/10/19 02:25:05;;;;;;;18.60;11.90;;;;;;;;;;2062944;28;20027;-77
2023/10/19 02:26:27;;;;;;;18.67;11.40;;;;;;;;;;2062029;28;20049;-78
2023/10/19 02:27:48;;;;;;;17.33;10.70;;;;;;;;;;2064750;28;20462;-77
2023/10/19 02:29:09;;;;;;;21.25;11.30;;;;;;;;;;2066189;28;20050;-77
2023/10/19 02:30:30;;;;;;;21.38;11.68;;;;;;;;;;2054523;28;20378;-75
2023/10/19 02:31:53;;;;;;;20.33;11.07;;;;;;;;;;2055634;28;20043;-75
2023/10/19 02:33:13;;;;;;;;;;;;;;;;;;2057298;28;20027;-75
2023/10/19 02:34:34;;;;;;;15.38;9.60;;;;;;;;;;2056942;28;19921;-75
2023/10/19 02:35:57;;;;;;;19.73;9.85;;;;;;;;;;2054462;28;20039;-75
2023/10/19 02:37:17;;;;;;;;;;;;;;;;;;2055791;28;20417;-75
2023/10/19 02:38:39;;;;;;;17.02;9.98;;;;;;;;;;2056009;28;19993;-75
2023/10/19 02:40:00;;;;;;;15.07;8.70;;;;;;;;;;2058999;28;20378;-75
2023/10/19 02:41:21;;;;;;;15.23;8.50;;;;;;;;;;2056300;28;20035;-75
2023/10/19 02:42:42;;;;;;;17.10;8.70;;;;;;;;;;2054886;28;20027;-76
2023/10/19 02:44:34;;;;;;;14.32;7.57;;;;;;;;;;2054278;28;20393;-75
2023/10/19 02:45:55;;;;;;;13.20;8.10;;;;;;;;;;2052676;28;20034;-75
2023/10/19 02:47:17;;;;;;;12.65;8.13;;;;;;;;;;2060805;28;20474;-75
2023/10/19 02:48:38;;;;;;;13.88;8.75;;;;;;;;;;2057119;28;20077;-75
2023/10/19 02:49:59;;;;;;;12.23;7.15;;;;;;;;;;2056413;28;20034;-74
2023/10/19 02:51:20;;;;;;;16.25;8.57;;;;;;;;;;2055914;28;20031;-75
2023/10/19 02:52:41;;;;;;;11.48;6.93;;;;;;;;;;2054094;28;20560;-75
2023/10/19 02:54:02;;;;;;;10.80;6.38;;;;;;;;;;2058637;28;20041;-75
2023/10/19 02:55:24;;;;;;;9.40;6.85;;;;;;;;;;2055815;28;20031;-75
2023/10/19 02:56:52;;;;;;;12.43;6.60;;;;;;;;;;2053594;28;20023;-75
2023/10/19 02:58:13;;;;;;;11.27;5.85;;;;;;;;;;2056945;28;20023;-75
2023/10/19 02:59:34;;;;;;;12.80;6.80;;;;;;;;;;2058466;28;20035;-75
2023/10/19 03:00:55;;;;;;;9.73;6.07;;;;;;;;;;2061275;28;20477;-75
2023/10/19 03:02:17;;;;;;;9.00;5.53;;;;;;;;;;2058246;28;20054;-76
2023/10/19 03:03:38;;;;;;;8.52;6.22;;;;;;;;;;2056593;28;20097;-74
2023/10/19 03:05:00;;;;;;;9.85;5.65;;;;;;;;;;2055664;28;20038;-75
2023/10/19 03:06:21;;;;;;;;;;;;;;;;;;2059241;28;20038;-75
2023/10/19 03:07:43;;;;;;;7.45;5.97;;;;;;;;;;2053841;28;20016;-75
2023/10/19 03:11:04;;;;;;;11.40;5.45;;;;;;;;;;2049659;29;20043;-75
2023/10/19 03:12:26;;;;;;;9.93;5.35;;;;;;;;;;2050170;28;20046;-75
2023/10/19 03:13:50;;;;;;;11.23;5.38;;;;;;;;;;2048066;28;20414;-75
2023/10/19 03:15:13;;;;;;;10.52;5.38;;;;;;;;;;2046473;29;20048;-76
2023/10/19 03:16:41;;;;;;;7.28;4.95;;;;;;;;;;2061612;28;20485;-75
2023/10/19 03:18:04;;;;;;;9.60;5.07;;;;;;;;;;2065911;28;20045;-75
2023/10/19 03:19:25;;;;;;;6.82;4.60;;;;;;;;;;2059700;28;20031;-75
2023/10/19 03:20:46;;;;;;;5.43;4.60;;;;;;;;;;2058871;28;20030;-76
2023/10/19 03:22:08;;;;;;;9.43;4.90;;;;;;;;;;2060483;28;20126;-75
2023/10/19 03:23:31;;;;;;;10.57;5.82;;;;;;;;;;2068533;28;20409;-76
2023/10/19 03:26:38;;;;;;;9.80;5.00;;;;;;;;;;2057882;28;20474;-75
2023/10/19 03:28:08;;;;;;;7.95;4.72;;;;;;;;;;2065003;28;20027;-75
2023/10/19 03:29:38;;;;;;;10.30;4.95;;;;;;;;;;2070422;28;20409;-75
2023/10/19 03:30:59;;;;;;;11.80;5.13;;;;;;;;;;2072933;28;20369;-75
2023/10/19 03:32:22;;;;;;;10.60;5.38;;;;;;;;;;2065540;28;20062;-75
2023/10/19 03:33:49;;;;;;;11.80;5.65;;;;;;;;;;2064098;28;20603;-75
2023/10/19 03:35:15;;;;;;;10.77;6.03;;;;;;;;;;2061198;28;20037;-75
2023/10/19 03:36:36;;;;;;;10.30;5.53;;;;;;;;;;2065920;28;20342;-75
2023/10/19 03:38:00;;;;;;;8.85;5.78;;;;;;;;;;2065557;28;20520;-75
2023/10/19 03:39:21;;;;;;;12.05;6.03;;;;;;;;;;2072357;28;20029;-74
2023/10/19 03:40:51;;;;;;;8.05;5.65;;;;;;;;;;2066123;28;20027;-75
2023/10/19 03:42:13;;;;;;;9.20;5.40;;;;;;;;;;2053124;28;20047;-78
2023/10/19 03:43:34;;;;;;;8.85;5.57;;;;;;;;;;2046163;28;20142;-78
2023/10/19 03:44:57;;;;;;;10.55;6.70;;;;;;;;;;2048640;29;20039;-78
2023/10/19 03:46:31;;;;;;;10.77;6.65;;;;;;;;;;2048427;29;20027;-77
2023/10/19 03:47:54;;;;;;;10.00;5.90;;;;;;;;;;2055603;28;20499;-78
2023/10/19 03:49:16;;;;;;;9.63;6.28;;;;;;;;;;2060802;28;20113;-78
2023/10/19 03:50:37;;;;;;;10.48;6.63;;;;;;;;;;2060640;28;20043;-78
2023/10/19 03:52:19;;;;;;;11.07;7.18;;;;;;;;;;2054524;28;20038;-79
2023/10/19 03:53:46;;;;;;;9.07;6.53;;;;;;;;;;2054987;28;20041;-78
2023/10/19 03:55:23;;;;;;;12.38;6.82;;;;;;;;;;2048955;28;20031;-78
2023/10/19 03:56:44;;;;;;;8.40;5.97;;;;;;;;;;2052765;28;20465;-78
2023/10/19 03:58:04;;;;;;;9.80;7.07;;;;;;;;;;2057320;28;20038;-77
2023/10/19 03:59:31;;;;;;;11.65;7.70;;;;;;;;;;2055588;28;20035;-78
2023/10/19 04:00:52;;;;;;;11.40;6.93;;;;;;;;;;2055212;28;20394;-77
2023/10/19 04:02:13;;;;;;;11.00;7.13;;;;;;;;;;2059768;28;20050;-78
2023/10/19 04:03:36;;;;;;;14.30;7.57;;;;;;;;;;2060184;28;20089;-77
2023/10/19 04:04:57;;;;;;;12.32;7.13;;;;;;;;;;2050811;28;20529;-78
2023/10/19 04:06:20;;;;;;;12.00;7.53;;;;;;;;;;2064091;28;20038;-78
2023/10/19 04:07:41;;;;;;;11.57;7.00;;;;;;;;;;2059869;28;20035;-77
2023/10/19 04:09:05;;;;;;;13.67;7.40;;;;;;;;;;2055656;28;20039;-78
2023/10/19 04:11:56;;;;;;;13.07;7.95;;;;;;;;;;2061274;28;20062;-78
2023/10/19 04:13:17;;;;;;;12.20;7.75;;;;;;;;;;2063060;28;20054;-77
2023/10/19 04:14:39;;;;;;;10.50;7.50;;;;;;;;;;2070028;28;20489;-78
2023/10/19 04:16:00;;;;;;;13.05;7.47;;;;;;;;;;2066228;28;20528;-77
2023/10/19 04:17:21;;;;;;;15.02;7.72;;;;;;;;;;2060517;28;20026;-78
2023/10/19 04:18:44;;;;;;;10.65;7.10;;;;;;;;;;2063846;28;20041;-77
2023/10/19 04:21:44;;;;;;;16.02;7.80;;;;;;;;;;2057370;28;20402;-77
2023/10/19 04:23:10;;;;;;;15.35;7.88;;;;;;;;;;2061468;28;20053;-77
2023/10/19 04:24:32;;;;;;;12.00;7.57;;;;;;;;;;2065658;28;20045;-77
2023/10/19 04:25:57;;;;;;;11.90;8.07;;;;;;;;;;2065666;28;20486;-77
2023/10/19 04:27:23;;;;;;;11.85;7.47;;;;;;;;;;2064246;28;20494;-78
2023/10/19 04:28:50;;;;;;;11.65;7.50;;;;;;;;;;2064503;28;20039;-78
2023/10/19 04:30:26;;;;;;;15.55;8.73;;;;;;;;;;2065080;28;20521;-78
2023/10/19 04:31:54;;;;;;;11.40;7.18;;;;;;;;;;2056782;28;20051;-78
2023/10/19 04:33:17;;;;;;;12.93;7.40;;;;;;;;;;2063238;28;20042;-78
2023/10/19 04:34:37;;;;;;;13.57;7.35;;;;;;;;;;2066559;28;20389;-77
2023/10/19 04:36:00;;;;;;;11.13;7.70;;;;;;;;;;2060904;28;20042;-78
2023/10/19 04:37:23;;;;;;;;;;;;;;;;;;2064886;28;20026;-78
2023/10/19 04:38:44;;;;;;;13.25;7.28;;;;;;;;;;2063758;28;19906;-78
2023/10/19 04:40:07;;;;;;;14.00;7.13;;;;;;;;;;2056169;28;20031;-77
2023/10/19 04:41:28;;;;;;;12.43;7.82;;;;;;;;;;2055236;28;20147;-75
2023/10/19 04:42:50;;;;;;;17.80;8.88;;;;;;;;;;2061833;28;20030;-74
2023/10/19 04:44:11;;;;;;;17.92;7.40;;;;;;;;;;2067426;28;20030;-75
2023/10/19 04:45:32;;;;;;;14.15;7.55;;;;;;;;;;2053131;28;20062;-74
2023/10/19 04:46:53;;;;;;;14.18;7.85;;;;;;;;;;2052990;28;20042;-75
2023/10/19 04:48:14;;;;;;;13.82;7.68;;;;;;;;;;2057064;28;20066;-75
2023/10/19 04:49:35;;;;;;;11.35;6.70;;;;;;;;;;2062025;28;20489;-75
2023/10/19 04:50:57;;;;;;;12.88;7.40;;;;;;;;;;2062247;28;20062;-75
2023/10/19 04:52:17;;;;;;;10.20;6.68;;;;;;;;;;2068760;28;20527;-76
2023/10/19 04:53:38;;;;;;;9.73;6.70;;;;;;;;;;2064971;28;20031;-76
2023/10/19 04:55:01;;;;;;;13.18;7.78;;;;;;;;;;2064962;28;20402;-76
2023/10/19 04:56:21;;;;;;;;;;;;;;;;;;2059148;28;20037;-76
2023/10/19 04:57:42;;;;;;;11.40;6.68;;;;;;;;;;2064444;28;20494;-75
2023/10/19 04:59:03;;;;;;;9.93;6.13;;;;;;;;;;2062400;28;20080;-76
2023/10/19 05:00:26;;;;;;;11.00;6.38;;;;;;;;;;2066400;28;20034;-76
2023/10/19 05:01:46;;;;;;;;;;;;;;;;;;2066136;28;20065;-76
2023/10/19 05:03:07;;;;;;;11.18;6.50;;;;;;;;;;2066152;28;19914;-75
2023/10/19 05:04:29;;;;;;;11.60;6.63;;;;;;;;;;2069717;28;20029;-75
2023/10/19 05:05:51;;;;;;;10.90;7.03;;;;;;;;;;2056059;28;20041;-75
2023/10/19 05:07:14;;;;;;;11.57;6.18;;;;;;;;;;2057345;28;20035;-75
2023/10/19 05:08:36;;;;;;;10.10;5.80;;;;;;;;;;2069639;28;20113;-75
2023/10/19 05:09:59;;;;;;;10.80;6.45;;;;;;;;;;2068546;28;20089;-75
2023/10/19 05:11:20;;;;;;;13.10;6.78;;;;;;;;;;2066977;28;20338;-75
2023/10/19 05:12:40;;;;;;;12.10;6.55;;;;;;;;;;2064199;28;20042;-76
2023/10/19 05:14:01;;;;;;;14.13;6.25;;;;;;;;;;2068232;28;20046;-76
2023/10/19 05:15:22;;;;;;;12.93;6.03;;;;;;;;;;2071557;28;20041;-76
2023/10/19 05:16:43;;;;;;;8.30;6.13;;;;;;;;;;2062569;28;20533;-76
2023/10/19 05:18:04;;;;;;;10.60;5.68;;;;;;;;;;2061713;28;20034;-76
2023/10/19 05:19:25;;;;;;;11.60;5.68;;;;;;;;;;2074661;28;20040;-76
2023/10/19 05:20:46;;;;;;;10.60;6.55;;;;;;;;;;2066190;28;20030;-77
2023/10/19 05:22:08;;;;;;;14.02;6.45;;;;;;;;;;2052765;28;20039;-76
2023/10/19 05:23:30;;;;;;;12.05;6.03;;;;;;;;;;2055017;28;20035;-76
2023/10/19 05:24:51;;;;;;;10.60;6.28;;;;;;;;;;2052775;28;20386;-76
2023/10/19 05:26:14;;;;;;;11.02;6.40;;;;;;;;;;2058351;28;20031;-75
2023/10/19 05:27:35;;;;;;;14.40;5.75;;;;;;;;;;2056003;28;20031;-76
2023/10/19 05:28:58;;;;;;;12.27;5.90;;;;;;;;;;2057041;28;20039;-76
2023/10/19 05:30:22;;;;;;;7.18;5.22;;;;;;;;;;2062572;28;20031;-76
2023/10/19 05:31:43;;;;;;;13.95;6.30;;;;;;;;;;2071419;28;20030;-76
2023/10/19 05:33:05;;;;;;;10.05;5.70;;;;;;;;;;2065346;28;20035;-76
2023/10/19 05:34:26;;;;;;;11.68;6.00;;;;;;;;;;2066976;28;20034;-76
2023/10/19 05:35:47;;;;;;;10.30;5.68;;;;;;;;;;2074367;28;20412;-76
2023/10/19 05:37:08;;;;;;;14.82;5.80;;;;;;;;;;2067793;28;20027;-76
2023/10/19 05:38:31;;;;;;;9.50;5.43;;;;;;;;;;2066228;28;20027;-76
2023/10/19 05:39:52;;;;;;;7.82;5.53;;;;;;;;;;2058273;28;20038;-76
2023/10/19 05:41:14;;;;;;;9.77;7.20;;;;;;;;;;2063719;28;20161;-77
2023/10/19 05:42:35;;;;;;;8.80;6.30;;;;;;;;;;2060229;28;20057;-75
2023/10/19 05:43:56;;;;;;;9.27;5.68;;;;;;;;;;2057612;28;20034;-76
2023/10/19 05:45:17;;;;;;;10.38;6.15;;;;;;;;;;2058481;28;20026;-76
2023/10/19 05:46:40;;;;;;;9.00;5.75;;;;;;;;;;2056760;28;20430;-75
2023/10/19 05:48:03;;;;;;;10.68;5.85;;;;;;;;;;2053779;28;20027;-77
2023/10/19 05:49:24;;;;;;;9.45;6.28;;;;;;;;;;2063076;28;20409;-75
2023/10/19 05:50:45;;;;;;;8.32;5.55;;;;;;;;;;2054963;28;20037;-76
2023/10/19 05:52:06;;;;;;;10.82;5.97;;;;;;;;;;2054438;28;20043;-75
2023/10/19 05:53:29;;;;;;;11.77;6.28;;;;;;;;;;2055809;28;20027;-74
2023/10/19 05:54:50;;;;;;;9.30;5.72;;;;;;;;;;2050851;28;20027;-74
2023/10/19 05:56:11;;;;;;;11.25;5.43;;;;;;;;;;2054169;28;20030;-74
2023/10/19 05:57:32;;;;;;;7.93;5.45;;;;;;;;;;2056721;28;20033;-74
2023/10/19 05:58:53;;;;;;;9.57;5.20;;;;;;;;;;2055890;28;20022;-74
2023/10/19 06:00:15;;;;;;;12.93;5.85;;;;;;;;;;2058218;28;20035;-74
2023/10/19 06:01:37;;;;;;;8.40;5.07;;;;;;;;;;2055876;28;20414;-75
2023/10/19 06:02:57;;;;;;;8.32;5.05;;;;;;;;;;2056653;28;20042;-78
2023/10/19 06:04:20;;;;;;;10.90;6.22;;;;;;;;;;2051616;28;20035;-76
2023/10/19 06:05:41;;;;;;;12.02;6.05;;;;;;;;;;2055240;28;20390;-77
2023/10/19 06:07:02;;;;;;;10.65;6.53;;;;;;;;;;2057008;28;20027;-77
2023/10/19 06:08:23;;;;;;;10.38;5.90;;;;;;;;;;2054136;28;20026;-78
2023/10/19 06:09:44;;;;;;;10.73;5.90;;;;;;;;;;2065193;28;20477;-77
2023/10/19 06:11:04;;;;;;;15.35;5.63;;;;;;;;;;2058235;28;20026;-77
2023/10/19 06:12:25;;;;;;;11.82;5.85;;;;;;;;;;2058193;28;20050;-77
2023/10/19 06:13:47;;;;;;;10.18;5.97;;;;;;;;;;2054677;28;20038;-78
2023/10/19 06:15:10;;;;;;;12.05;5.55;;;;;;;;;;2054932;28;20446;-77
2023/10/19 06:16:31;;;;;;;9.80;5.45;;;;;;;;;;2051343;28;20058;-78
2023/10/19 06:17:52;;;;;;;15.13;5.88;;;;;;;;;;2058582;28;20109;-77
2023/10/19 06:19:13;;;;;;;8.35;4.93;;;;;;;;;;2059464;28;20034;-78
2023/10/19 06:20:34;;;;;;;10.80;5.60;;;;;;;;;;2054298;28;20027;-78
2023/10/19 06:21:55;;;;;;;12.15;5.90;;;;;;;;;;2051702;28;20494;-77
2023/10/19 06:23:16;;;;;;;8.52;4.80;;;;;;;;;;2057848;28;20065;-77
2023/10/19 06:24:37;;;;;;;12.25;5.57;;;;;;;;;;2056427;28;20038;-78
2023/10/19 06:25:59;;;;;;;11.73;5.88;;;;;;;;;;2056387;28;20090;-77
2023/10/19 06:27:21;;;;;;;;;;;;;;;;;;2058013;28;20027;-77
2023/10/19 06:28:41;;;;;;;12.38;5.85;;;;;;;;;;2064391;28;19906;-77
2023/10/19 06:30:03;;;;;;;14.93;5.75;;;;;;;;;;2056547;28;20035;-77
2023/10/19 06:31:24;;;;;;;14.15;5.20;;;;;;;;;;2061441;28;20168;-77
2023/10/19 06:32:52;;;;;;;11.50;5.57;;;;;;;;;;2059279;28;20113;-77
2023/10/19 06:34:13;;;;;;;11.13;5.15;;;;;;;;;;2054648;28;20384;-77
2023/10/19 06:35:36;;;;;;;9.82;5.10;;;;;;;;;;2065158;28;20034;-77
2023/10/19 06:36:57;;;;;;;10.88;5.47;;;;;;;;;;2058748;28;20058;-77
2023/10/19 06:38:17;;;;;;;8.88;5.55;;;;;;;;;;2058698;28;20038;-75
2023/10/19 06:39:40;;;;;;;12.02;5.82;;;;;;;;;;2063404;28;20026;-77
2023/10/19 06:41:10;;;;;;;10.18;5.25;;;;;;;;;;2066040;28;20038;-78
2023/10/19 06:42:31;;;;;;;10.73;6.50;;;;;;;;;;2062688;28;20490;-78
2023/10/19 06:43:52;;;;;;;8.80;5.80;;;;;;;;;;2064065;28;20042;-78
2023/10/19 06:45:13;;;;;;;8.75;5.60;;;;;;;;;;2073826;28;20456;-78
2023/10/19 06:46:35;;;;;;;6.43;5.18;;;;;;;;;;2069215;28;20073;-78
2023/10/19 06:47:57;;;;;;;10.20;4.70;;;;;;;;;;2064881;28;20042;-78
2023/10/19 06:49:19;;;;;;;8.70;4.72;;;;;;;;;;2070563;28;20069;-77
2023/10/19 06:50:40;;;;;;;11.80;5.43;;;;;;;;;;2073972;28;20076;-77
2023/10/19 06:52:01;;;;;;;9.57;5.70;;;;;;;;;;2067606;28;20122;-77
2023/10/19 06:53:22;;;;;;;14.68;5.97;;;;;;;;;;2059757;28;20493;-77
2023/10/19 06:54:43;;;;;;;11.55;5.40;;;;;;;;;;2063820;28;20034;-77
2023/10/19 06:56:04;;;;;;;9.73;5.63;;;;;;;;;;2069243;28;20029;-78
2023/10/19 06:57:25;;;;;;;11.02;5.13;;;;;;;;;;2065725;28;20041;-77
2023/10/19 06:58:45;;;;;;;11.80;5.55;;;;;;;;;;2064649;28;20026;-78
2023/10/19 07:00:14;;;;;;;15.32;5.75;;;;;;;;;;2068139;28;20029;-78
2023/10/19 07:01:36;;;;;;;10.05;5.00;;;;;;;;;;2062403;28;20516;-78
2023/10/19 07:03:00;;;;;;;10.07;5.65;;;;;;;;;;2057523;28;20034;-75
2023/10/19 07:04:21;;;;;;;13.20;5.72;;;;;;;;;;2064282;28;20406;-75
2023/10/19 07:05:42;;;;;;;15.75;6.30;;;;;;;;;;2067503;28;20050;-74
2023/10/19 07:07:03;;;;;;;13.73;5.97;;;;;;;;;;2066242;28;20061;-75
2023/10/19 07:08:26;;;;;;;10.27;5.95;;;;;;;;;;2064964;28;20438;-75
2023/10/19 07:09:47;;;;;;;9.18;5.63;;;;;;;;;;2072587;28;20044;-75
2023/10/19 07:11:09;;;;;;;8.60;5.03;;;;;;;;;;2062820;28;20394;-76
2023/10/19 07:12:30;;;;;;;11.90;5.97;;;;;;;;;;2059777;28;20038;-76
2023/10/19 07:13:50;;;;;;;17.15;5.97;;;;;;;;;;2067934;28;20041;-75
2023/10/19 07:15:15;;;;;;;11.70;5.10;;;;;;;;;;2068031;28;20028;-74
2023/10/19 07:16:36;;;;;;;11.95;5.95;;;;;;;;;;2064432;28;20044;-74
2023/10/19 07:17:58;;;;;;;12.63;6.03;;;;;;;;;;2059045;28;20027;-75
2023/10/19 07:19:19;;;;;;;8.93;5.57;;;;;;;;;;2066891;28;20501;-75
2023/10/19 07:20:42;;;;;;;10.32;5.68;;;;;;;;;;2070365;28;20034;-75
2023/10/19 07:22:04;;;;;;;10.38;5.95;;;;;;;;;;2071848;28;20029;-75
2023/10/19 07:23:26;;;;;;;13.45;5.40;;;;;;;;;;2065467;28;20433;-75
2023/10/19 07:24:47;;;;;;;11.07;5.13;;;;;;;;;;2057174;28;20089;-74
2023/10/19 07:26:08;;;;;;;9.27;4.70;;;;;;;;;;2066088;28;20145;-75
2023/10/19 07:27:29;;;;;;;9.93;5.13;;;;;;;;;;2063647;28;20045;-75
2023/10/19 07:28:50;;;;;;;11.90;5.15;;;;;;;;;;2067984;28;21009;-75
2023/10/19 07:30:15;;;;;;;9.23;4.93;;;;;;;;;;2068385;28;20038;-75
2023/10/19 07:31:36;;;;;;;9.93;4.97;;;;;;;;;;2064204;28;20026;-75
2023/10/19 07:32:59;;;;;;;8.50;5.07;;;;;;;;;;2060810;28;20039;-74
2023/10/19 07:34:25;;;;;;;13.85;5.50;;;;;;;;;;2070384;28;20041;-75
2023/10/19 07:35:47;;;;;;;15.57;5.10;;;;;;;;;;2068526;28;20038;-75
2023/10/19 07:37:08;;;;;;;13.98;6.35;;;;;;;;;;2067440;28;20026;-75
2023/10/19 07:38:30;;;;;;;9.88;5.32;;;;;;;;;;2063659;28;20027;-75
2023/10/19 07:39:52;;;;;;;13.93;5.72;;;;;;;;;;2061906;28;20022;-75
2023/10/19 07:41:13;;;;;;;11.18;6.85;;;;;;;;;;2063680;28;20335;-75
2023/10/19 07:42:36;;;;;;;9.65;5.30;;;;;;;;;;2061012;28;20041;-75
2023/10/19 07:43:57;;;;;;;12.15;6.50;;;;;;;;;;2065083;28;20026;-75
2023/10/19 07:45:18;;;;;;;17.13;5.65;;;;;;;;;;2070409;28;20053;-75
2023/10/19 07:46:39;;;;;;;14.18;5.53;;;;;;;;;;2054088;28;20487;-75
2023/10/19 07:48:06;;;;;;;13.30;6.33;;;;;;;;;;2059954;28;20026;-75
2023/10/19 07:49:27;;;;;;;10.25;5.45;;;;;;;;;;2070345;28;20041;-75
2023/10/19 07:50:48;;;;;;;16.85;6.03;;;;;;;;;;2056410;28;20019;-75
2023/10/19 07:52:10;;;;;;;14.45;6.38;;;;;;;;;;2054984;28;20038;-75
2023/10/19 07:53:31;;;;;;;15.38;5.90;;;;;;;;;;2058960;28;20062;-75
2023/10/19 07:54:53;;;;;;;13.10;5.78;;;;;;;;;;2058407;28;20023;-75
2023/10/19 07:56:13;;;;;;;9.38;5.05;;;;;;;;;;2070301;28;20026;-74
2023/10/19 07:57:34;;;;;;;11.80;6.05;;;;;;;;;;2064451;28;20038;-75
2023/10/19 07:58:56;;;;;;;10.57;5.78;;;;;;;;;;2061013;28;20350;-75
2023/10/19 08:00:18;;;;;;;11.57;5.22;;;;;;;;;;2065737;28;20134;-75
2023/10/19 08:01:39;;;;;;;13.65;6.60;;;;;;;;;;2058431;28;20023;-74
2023/10/19 08:03:00;;;;;;;11.30;6.43;;;;;;;;;;2065559;28;20042;-75
2023/10/19 08:04:21;;;;;;;9.88;5.32;;;;;;;;;;2065376;28;20410;-74
2023/10/19 08:05:42;;;;;;;9.15;4.93;;;;;;;;;;2062353;28;20034;-74
2023/10/19 08:07:03;;;;;;;13.07;6.25;;;;;;;;;;2064297;28;20033;-74
2023/10/19 08:08:25;;;;;;;11.52;4.47;;;;;;;;;;2072864;28;20037;-75
2023/10/19 08:09:46;;;;;;;12.88;5.53;;;;;;;;;;2064230;28;20406;-74
2023/10/19 08:11:08;;;;;;;12.18;4.80;;;;;;;;;;2057734;28;20109;-75
2023/10/19 08:12:30;;;;;;;11.18;5.25;;;;;;;;;;2059293;28;20039;-75
2023/10/19 08:13:51;;;;;;;9.27;5.28;;;;;;;;;;2056804;28;20031;-76
2023/10/19 08:15:13;;;;;;;14.38;5.93;;;;;;;;;;2057497;28;20030;-76
2023/10/19 08:16:34;;;;;;;15.50;6.22;;;;;;;;;;2056054;28;20070;-77
2023/10/19 08:17:55;;;;;;;12.23;5.72;;;;;;;;;;2049416;28;20050;-76
2023/10/19 08:19:16;;;;;;;9.45;5.20;;;;;;;;;;2055251;28;20027;-75
2023/10/19 08:20:37;;;;;;;10.75;5.30;;;;;;;;;;2055687;28;20411;-76
2023/10/19 08:21:58;;;;;;;10.05;4.82;;;;;;;;;;2050320;28;20075;-76
2023/10/19 08:23:23;;;;;;;11.60;5.10;;;;;;;;;;2063929;28;20038;-75